Time;durP1;ratioP1;P1;durP2;ratioP2;P2;SDS_P1;SDS_P2;PMS_P1;PMS_P2;Temp;Humidity;BMP_temperature;BMP_pressure;BME280_temperature;BME280_humidity;BME280_pressure;Samples;Min_cycle;Max_cycle;Signal;HPM_P1;HPM_P2
2023/09/07 00:01:34;;;;;;;13.23;8.35;;;;;;;16.98;100.00;101413.84;5070362;28;20048;-68
2023/09/07 00:04:03;;;;;;;15.80;9.02;;;;;;;16.78;100.00;101392.84;5071341;28;20044;-68
2023/09/07 00:06:30;;;;;;;13.57;9.18;;;;;;;17.23;100.00;101402.78;5071530;28;20048;-68
2023/09/07 00:08:57;;;;;;;15.00;7.15;;;;;;;17.53;100.00;101412.59;5070508;28;20382;-68
2023/09/07 00:11:23;;;;;;;12.00;7.60;;;;;;;17.58;100.00;101413.22;5064686;28;20051;-68
2023/09/07 00:13:50;;;;;;;12.70;6.70;;;;;;;17.67;100.00;101408.31;5062536;28;20055;-68
2023/09/07 00:16:18;;;;;;;13.20;7.32;;;;;;;17.64;100.00;101415.50;5070076;28;20139;-69
2023/09/07 00:18:45;;;;;;;13.75;6.78;;;;;;;17.73;100.00;101405.34;5070147;28;20074;-68
2023/09/07 00:21:11;;;;;;;11.02;6.30;;;;;;;17.72;100.00;101400.97;5069474;28;20047;-68
2023/09/07 00:23:40;;;;;;;10.73;5.97;;;;;;;17.79;100.00;101402.31;5066280;28;20041;-68
2023/09/07 00:26:06;;;;;;;11.77;5.70;;;;;;;17.62;100.00;101393.53;5065408;28;20508;-68
2023/09/07 00:28:33;;;;;;;13.15;6.53;;;;;;;17.54;100.00;101385.16;5067282;28;20048;-68
2023/09/07 00:31:00;;;;;;;11.05;6.22;;;;;;;17.56;100.00;101398.31;5066322;28;20041;-68
2023/09/07 00:33:27;;;;;;;11.05;6.63;;;;;;;17.44;100.00;101392.78;5070764;28;20048;-68
2023/09/07 00:35:54;;;;;;;11.25;6.68;;;;;;;17.52;100.00;101389.72;5071285;28;20388;-68
2023/09/07 00:38:21;;;;;;;14.43;7.05;;;;;;;17.54;100.00;101400.22;5070485;28;20070;-68
2023/09/07 00:40:47;;;;;;;11.98;7.05;;;;;;;17.57;100.00;101402.69;5067808;28;20044;-68
2023/09/07 00:43:14;;;;;;;13.02;6.68;;;;;;;17.59;100.00;101408.75;5068097;28;20059;-68
2023/09/07 00:45:41;;;;;;;11.25;6.65;;;;;;;17.44;100.00;101406.03;5053853;28;20406;-68
2023/09/07 00:48:08;;;;;;;11.60;5.55;;;;;;;17.56;100.00;101415.06;5054763;28;20045;-68
2023/09/07 00:50:35;;;;;;;13.65;6.70;;;;;;;17.43;100.00;101406.97;5061829;28;20050;-68
2023/09/07 00:53:03;;;;;;;10.55;6.40;;;;;;;17.60;100.00;101413.09;5070041;28;20486;-68
2023/09/07 00:55:32;;;;;;;11.93;6.00;;;;;;;17.63;100.00;101407.63;5074285;28;20053;-68
2023/09/07 00:58:00;;;;;;;12.18;6.53;;;;;;;17.66;100.00;101394.22;5067664;28;20067;-68
2023/09/07 01:00:27;;;;;;;10.15;5.20;;;;;;;17.63;100.00;101391.75;5058075;28;20562;-68
2023/09/07 01:02:55;;;;;;;9.88;4.80;;;;;;;17.69;100.00;101394.06;5057263;28;20127;-68
2023/09/07 01:05:32;;;;;;;10.63;5.53;;;;;;;17.00;100.00;101374.94;5070102;28;20049;-68
2023/09/07 01:08:11;;;;;;;9.88;5.80;;;;;;;16.84;100.00;101377.56;5069079;28;20049;-68
2023/09/07 01:10:38;;;;;;;11.63;6.45;;;;;;;16.83;100.00;101377.59;5061421;28;20054;-68
2023/09/07 01:13:05;;;;;;;10.57;5.57;;;;;;;17.22;100.00;101376.41;5068213;28;20374;-68
2023/09/07 01:15:32;;;;;;;10.57;5.63;;;;;;;17.44;100.00;101381.34;5065651;28;20048;-68
2023/09/07 01:17:59;;;;;;;11.00;5.57;;;;;;;17.39;100.00;101380.75;5067565;28;20098;-67
2023/09/07 01:20:48;;;;;;;9.52;4.97;;;;;;;17.50;100.00;101380.16;5063479;28;20072;-68
2023/09/07 01:23:15;;;;;;;9.93;5.30;;;;;;;17.18;100.00;101372.22;5052753;28;20056;-66
2023/09/07 01:25:43;;;;;;;9.85;5.28;;;;;;;16.73;100.00;101374.56;5055029;28;20777;-66
2023/09/07 01:28:10;;;;;;;10.77;5.45;;;;;;;16.73;100.00;101379.03;5063595;28;20068;-66
2023/09/07 01:30:38;;;;;;;12.18;5.85;;;;;;;17.29;100.00;101383.06;5068854;28;20508;-66
2023/09/07 01:33:05;;;;;;;11.00;5.05;;;;;;;16.94;100.00;101379.69;5068722;28;20084;-67
2023/09/07 01:35:34;;;;;;;11.05;6.13;;;;;;;16.71;100.00;101363.22;5064046;28;20052;-67
2023/09/07 01:38:01;;;;;;;10.02;4.53;;;;;;;16.72;100.00;101379.97;5059177;28;20386;-67
2023/09/07 01:40:28;;;;;;;9.07;4.65;;;;;;;16.69;100.00;101373.03;5057470;28;20101;-67
2023/09/07 01:42:55;;;;;;;9.57;4.72;;;;;;;16.63;100.00;101374.22;5064826;28;20052;-66
2023/09/07 01:45:23;;;;;;;8.68;4.53;;;;;;;16.54;100.00;101353.56;5056066;28;20049;-66
2023/09/07 01:47:51;;;;;;;9.55;5.07;;;;;;;16.55;100.00;101370.28;5060756;28;20498;-67
2023/09/07 01:50:18;;;;;;;10.20;4.45;;;;;;;16.49;100.00;101374.94;5066652;28;20102;-66
2023/09/07 01:52:48;;;;;;;10.55;5.50;;;;;;;16.52;100.00;101374.81;5074092;28;20551;-67
2023/09/07 01:55:15;;;;;;;14.45;5.90;;;;;;;16.51;100.00;101378.38;5074063;28;20048;-67
2023/09/07 01:57:42;;;;;;;12.93;5.82;;;;;;;16.41;100.00;101387.69;5068985;28;20045;-67
2023/09/07 02:00:10;;;;;;;12.23;6.00;;;;;;;16.85;100.00;101378.41;5082934;28;20041;-67
2023/09/07 02:02:36;;;;;;;11.98;6.60;;;;;;;16.87;100.00;101376.53;5064944;28;20041;-67
2023/09/07 02:05:03;;;;;;;9.88;5.25;;;;;;;16.96;100.00;101361.94;5074126;28;20048;-67
2023/09/07 02:07:30;;;;;;;10.52;5.45;;;;;;;16.93;100.00;101359.47;5071359;28;20080;-68
2023/09/07 02:09:57;;;;;;;11.52;5.47;;;;;;;17.10;100.00;101362.03;5066213;28;20131;-67
2023/09/07 02:12:24;;;;;;;10.60;5.72;;;;;;;17.15;100.00;101365.28;5072780;28;20051;-66
2023/09/07 02:14:51;;;;;;;9.38;5.35;;;;;;;17.09;100.00;101355.06;5068967;28;20051;-67
2023/09/07 02:17:17;;;;;;;14.13;6.07;;;;;;;17.03;100.00;101364.19;5070541;28;20067;-67
2023/09/07 02:19:44;;;;;;;12.05;7.07;;;;;;;16.62;100.00;101367.22;5069367;28;20371;-67
2023/09/07 02:22:11;;;;;;;14.75;6.85;;;;;;;16.49;100.00;101366.19;5063919;28;20049;-67
2023/09/07 02:24:38;;;;;;;13.25;6.55;;;;;;;16.62;100.00;101367.22;5071858;28;20494;-67
2023/09/07 02:27:05;;;;;;;12.00;6.78;;;;;;;16.66;100.00;101366.16;5071552;28;20056;-67
2023/09/07 02:29:31;;;;;;;15.55;8.25;;;;;;;16.51;100.00;101365.16;5087872;28;20048;-67
2023/09/07 02:31:58;;;;;;;12.90;7.50;;;;;;;16.62;100.00;101355.81;5072200;28;20052;-67
2023/09/07 02:34:25;;;;;;;13.18;7.75;;;;;;;16.59;100.00;101364.75;5088542;28;20051;-67
2023/09/07 02:36:51;;;;;;;13.13;8.15;;;;;;;16.57;100.00;101369.25;5059710;28;20052;-67
2023/09/07 02:39:18;;;;;;;11.93;6.55;;;;;;;16.69;100.00;101362.47;5063907;28;20450;-67
2023/09/07 02:41:46;;;;;;;10.30;4.70;;;;;;;16.84;100.00;101363.50;5068060;28;20067;-68
2023/09/07 02:44:12;;;;;;;10.93;5.55;;;;;;;16.84;100.00;101371.41;5063316;28;20659;-67
2023/09/07 02:46:39;;;;;;;11.60;5.50;;;;;;;16.84;100.00;101380.19;5069670;28;20080;-67
2023/09/07 02:49:06;;;;;;;12.50;5.50;;;;;;;16.80;100.00;101373.34;5066119;28;20053;-67
2023/09/07 02:51:33;;;;;;;9.80;4.88;;;;;;;16.86;100.00;101362.47;5071198;28;20048;-67
2023/09/07 02:54:01;;;;;;;9.60;5.05;;;;;;;16.82;100.00;101352.97;5072578;28;20094;-67
2023/09/07 02:56:28;;;;;;;11.45;5.05;;;;;;;16.91;100.00;101370.16;5072951;28;20045;-67
2023/09/07 02:58:56;;;;;;;9.18;4.75;;;;;;;16.70;100.00;101365.03;5070710;28;20055;-67
2023/09/07 03:01:23;;;;;;;12.07;5.88;;;;;;;16.81;100.00;101374.19;5088167;28;20056;-67
2023/09/07 03:03:50;;;;;;;10.75;5.03;;;;;;;16.74;100.00;101364.88;5055445;28;20044;-67
2023/09/07 03:06:17;;;;;;;12.55;6.55;;;;;;;16.59;100.00;101377.09;5060747;28;20037;-67
2023/09/07 03:08:44;;;;;;;9.68;4.85;;;;;;;16.57;100.00;101366.59;5072055;28;20052;-67
2023/09/07 03:11:11;;;;;;;13.05;5.10;;;;;;;16.62;100.00;101364.56;5069980;28;20048;-67
2023/09/07 03:13:38;;;;;;;9.38;4.68;;;;;;;16.74;100.00;101388.69;5070585;28;20087;-67
2023/09/07 03:16:05;;;;;;;13.60;4.70;;;;;;;16.75;100.00;101371.84;5063408;28;20052;-67
2023/09/07 03:18:32;;;;;;;10.02;5.15;;;;;;;16.62;100.00;101371.66;5063903;28;20098;-67
2023/09/07 03:21:02;;;;;;;10.65;5.68;;;;;;;16.47;100.00;101368.06;5065789;28;20075;-67
2023/09/07 03:23:30;;;;;;;14.25;7.93;;;;;;;16.29;100.00;101398.94;5065635;28;20049;-67
2023/09/07 03:25:58;;;;;;;12.30;6.53;;;;;;;16.18;100.00;101398.59;5059540;28;20087;-67
2023/09/07 03:28:25;;;;;;;9.90;4.90;;;;;;;15.97;100.00;101382.91;5069269;28;20399;-67
2023/09/07 03:30:53;;;;;;;12.35;5.93;;;;;;;15.93;100.00;101399.81;5070074;28;20079;-67
2023/09/07 03:33:20;;;;;;;12.27;6.57;;;;;;;16.02;100.00;101401.16;5070676;28;20470;-67
2023/09/07 03:35:47;;;;;;;11.32;6.25;;;;;;;16.01;100.00;101391.53;5070801;28;20192;-67
2023/09/07 03:38:14;;;;;;;11.25;6.22;;;;;;;15.97;100.00;101379.41;5056950;28;20081;-67
2023/09/07 03:40:40;;;;;;;11.05;6.47;;;;;;;16.01;100.00;101392.38;5065675;28;20128;-67
2023/09/07 03:43:07;;;;;;;10.43;5.70;;;;;;;15.91;100.00;101389.34;5065941;28;20041;-67
2023/09/07 03:45:34;;;;;;;12.32;5.35;;;;;;;15.98;100.00;101397.81;5060478;28;20052;-67
2023/09/07 03:48:01;;;;;;;14.57;5.93;;;;;;;15.94;100.00;101396.28;5068715;28;20060;-67
2023/09/07 03:50:28;;;;;;;14.35;8.27;;;;;;;15.77;100.00;101398.88;5070882;28;20052;-68
2023/09/07 03:52:54;;;;;;;12.95;7.60;;;;;;;15.82;100.00;101391.59;5062358;28;20052;-67
2023/09/07 03:55:21;;;;;;;10.30;5.32;;;;;;;16.10;100.00;101394.56;5071262;28;20372;-67
2023/09/07 03:57:48;;;;;;;10.75;5.43;;;;;;;16.16;100.00;101395.19;5070736;28;20504;-67
2023/09/07 04:00:17;;;;;;;10.38;4.72;;;;;;;16.07;100.00;101381.50;5070252;28;20044;-67
2023/09/07 04:02:44;;;;;;;10.30;5.18;;;;;;;16.16;100.00;101390.75;5071537;28;20059;-67
2023/09/07 04:05:11;;;;;;;8.73;4.50;;;;;;;16.22;100.00;101371.97;5087835;28;20044;-67
2023/09/07 04:07:38;;;;;;;10.95;4.88;;;;;;;16.35;100.00;101384.53;5069492;28;20052;-67
2023/09/07 04:10:05;;;;;;;9.90;5.15;;;;;;;16.40;100.00;101383.38;5070532;28;20045;-67
2023/09/07 04:12:33;;;;;;;11.02;4.45;;;;;;;16.48;100.00;101356.53;5070460;28;20052;-67
2023/09/07 04:15:02;;;;;;;11.68;5.63;;;;;;;16.53;100.00;101362.44;5070882;28;20052;-67
2023/09/07 04:17:29;;;;;;;10.32;4.43;;;;;;;16.43;100.00;101359.44;5071098;28;20049;-67
2023/09/07 04:19:56;;;;;;;9.52;5.20;;;;;;;16.39;100.00;101359.66;5058222;28;20094;-67
2023/09/07 04:22:22;;;;;;;10.25;4.45;;;;;;;16.48;100.00;101385.59;5083819;28;20048;-67
2023/09/07 04:24:49;;;;;;;10.73;5.07;;;;;;;16.39;100.00;101378.16;5074684;28;20139;-67
2023/09/07 04:27:16;;;;;;;14.50;5.60;;;;;;;16.28;100.00;101382.19;5084749;28;20040;-67
2023/09/07 04:29:43;;;;;;;13.05;5.40;;;;;;;16.31;100.00;101378.56;5065137;28;20674;-67
2023/09/07 04:32:10;;;;;;;9.48;4.47;;;;;;;16.43;100.00;101384.97;5064596;28;20044;-68
2023/09/07 04:34:36;;;;;;;9.80;4.60;;;;;;;16.36;100.00;101368.63;5065786;28;20064;-67
2023/09/07 04:37:03;;;;;;;9.32;4.65;;;;;;;16.32;100.00;101352.06;5063173;28;20486;-67
2023/09/07 04:39:30;;;;;;;13.43;4.70;;;;;;;16.34;100.00;101375.75;5057163;28;20423;-68
2023/09/07 04:41:56;;;;;;;10.25;4.53;;;;;;;16.29;100.00;101373.34;5070025;28;20519;-67
2023/09/07 04:44:23;;;;;;;9.88;4.80;;;;;;;16.29;100.00;101389.19;5067922;28;20049;-67
2023/09/07 04:46:51;;;;;;;9.57;4.95;;;;;;;16.33;100.00;101374.03;5070457;28;20048;-68
2023/09/07 04:49:18;;;;;;;9.70;4.40;;;;;;;16.47;100.00;101371.53;5070139;28;20059;-68
2023/09/07 04:51:45;;;;;;;11.23;4.50;;;;;;;16.48;100.00;101393.53;5070498;28;20430;-68
2023/09/07 04:54:12;;;;;;;9.05;4.60;;;;;;;16.50;100.00;101397.81;5058392;28;20068;-68
2023/09/07 04:56:39;;;;;;;10.45;5.10;;;;;;;16.49;100.00;101388.16;5055687;28;20045;-67
2023/09/07 04:59:05;;;;;;;9.20;4.80;;;;;;;16.47;100.00;101395.31;5068861;28;20139;-67
2023/09/07 05:01:32;;;;;;;11.77;4.97;;;;;;;16.22;100.00;101381.66;5069571;28;20044;-67
2023/09/07 05:03:59;;;;;;;10.00;4.93;;;;;;;16.34;100.00;101388.94;5065488;28;20051;-68
2023/09/07 05:06:26;;;;;;;10.52;4.90;;;;;;;16.45;100.00;101409.53;5066892;28;20048;-67
2023/09/07 05:08:53;;;;;;;8.98;4.57;;;;;;;16.41;100.00;101410.63;5068553;28;20090;-68
2023/09/07 05:11:19;;;;;;;9.63;4.97;;;;;;;16.25;100.00;101406.13;5085645;28;20382;-67
2023/09/07 05:13:46;;;;;;;11.70;5.80;;;;;;;16.24;100.00;101404.44;5069773;28;20047;-68
2023/09/07 05:16:13;;;;;;;12.15;5.70;;;;;;;16.33;100.00;101400.47;5070284;28;20045;-67
2023/09/07 05:18:41;;;;;;;10.57;6.03;;;;;;;16.38;100.00;101393.16;5055847;28;20052;-67
2023/09/07 05:21:12;;;;;;;12.32;6.45;;;;;;;16.26;100.00;101405.22;5073721;28;20101;-67
2023/09/07 05:23:40;;;;;;;11.43;5.90;;;;;;;16.39;100.00;101405.44;5068036;28;20136;-68
2023/09/07 05:26:07;;;;;;;12.55;5.25;;;;;;;16.41;100.00;101392.97;5065203;28;20419;-68
2023/09/07 05:28:33;;;;;;;10.70;5.70;;;;;;;16.23;100.00;101396.59;5069271;28;20055;-67
2023/09/07 05:31:00;;;;;;;11.55;5.90;;;;;;;16.31;100.00;101410.28;5067778;28;20105;-68
2023/09/07 05:33:27;;;;;;;11.18;5.50;;;;;;;16.39;100.00;101409.88;5064487;28;20398;-67
2023/09/07 05:35:54;;;;;;;9.10;4.43;;;;;;;16.48;100.00;101409.38;5060578;28;20040;-68
2023/09/07 05:38:20;;;;;;;11.80;5.57;;;;;;;16.44;100.00;101399.91;5058064;28;20059;-67
2023/09/07 05:40:50;;;;;;;10.52;5.57;;;;;;;16.62;100.00;101414.81;5065862;28;20409;-67
2023/09/07 05:43:16;;;;;;;10.10;5.35;;;;;;;16.56;100.00;101407.22;5055822;28;20055;-68
2023/09/07 05:45:43;;;;;;;9.77;4.82;;;;;;;16.62;100.00;101419.25;5065946;28;20505;-67
2023/09/07 05:48:10;;;;;;;8.88;4.20;;;;;;;16.72;100.00;101414.34;5055909;28;20045;-67
2023/09/07 05:50:38;;;;;;;9.43;4.82;;;;;;;16.72;100.00;101420.47;5069746;28;20048;-68
2023/09/07 05:53:05;;;;;;;9.07;4.25;;;;;;;16.72;100.00;101431.06;5057924;28;20144;-67
2023/09/07 05:55:32;;;;;;;9.38;4.88;;;;;;;16.85;100.00;101429.50;5068659;28;20056;-67
2023/09/07 05:58:05;;;;;;;9.15;4.18;;;;;;;16.99;100.00;101419.97;5065514;28;20127;-67
2023/09/07 06:00:32;;;;;;;12.70;5.88;;;;;;;16.91;100.00;101422.19;5083496;28;20048;-68
2023/09/07 06:02:58;;;;;;;10.25;5.10;;;;;;;16.94;100.00;101440.53;5059870;28;20049;-68
2023/09/07 06:05:25;;;;;;;10.77;5.45;;;;;;;16.95;100.00;101426.38;5059339;28;20416;-68
2023/09/07 06:07:52;;;;;;;11.20;4.57;;;;;;;17.14;100.00;101440.34;5066805;28;20047;-67
2023/09/07 06:10:19;;;;;;;10.88;4.65;;;;;;;17.07;100.00;101431.88;5056943;28;20049;-68
2023/09/07 06:12:45;;;;;;;10.02;5.30;;;;;;;17.07;100.00;101444.25;5059984;28;20048;-67
2023/09/07 06:15:12;;;;;;;11.50;5.47;;;;;;;17.17;100.00;101439.31;5060845;28;20053;-67
2023/09/07 06:17:39;;;;;;;12.27;5.85;;;;;;;17.17;100.00;101437.50;5056740;28;20048;-68
2023/09/07 06:20:06;;;;;;;11.82;6.20;;;;;;;17.16;100.00;101446.38;5056161;28;20049;-68
2023/09/07 06:22:33;;;;;;;10.90;5.22;;;;;;;17.23;100.00;101453.06;5061955;28;20122;-67
2023/09/07 06:25:00;;;;;;;11.55;5.90;;;;;;;17.42;100.00;101457.34;5065097;28;20497;-68
2023/09/07 06:27:26;;;;;;;12.77;5.93;;;;;;;17.60;100.00;101453.69;5065114;28;20147;-68
2023/09/07 06:29:53;;;;;;;10.60;5.63;;;;;;;17.65;100.00;101456.06;5068428;28;20055;-67
2023/09/07 06:32:20;;;;;;;10.32;5.55;;;;;;;17.71;100.00;101457.53;5061988;28;20060;-67
2023/09/07 06:34:47;;;;;;;12.00;5.38;;;;;;;17.62;100.00;101448.31;5070686;28;20482;-66
2023/09/07 06:37:14;;;;;;;10.77;5.53;;;;;;;17.56;100.00;101449.47;5069046;28;20429;-67
2023/09/07 06:39:43;;;;;;;10.43;5.65;;;;;;;17.42;100.00;101463.50;5063257;28;20049;-67
2023/09/07 06:42:12;;;;;;;12.20;6.18;;;;;;;17.27;100.00;101459.88;5056008;28;20364;-66
2023/09/07 06:44:39;;;;;;;11.38;6.13;;;;;;;17.20;100.00;101469.09;5058251;28;20056;-67
2023/09/07 06:47:05;;;;;;;12.38;6.72;;;;;;;16.96;100.00;101479.19;5061799;28;20083;-67
2023/09/07 06:49:32;;;;;;;12.50;6.40;;;;;;;16.66;100.00;101486.88;5056307;28;20403;-67
2023/09/07 06:51:59;;;;;;;11.40;5.28;;;;;;;16.73;100.00;101488.28;5071955;28;20048;-66
2023/09/07 06:54:28;;;;;;;12.75;6.45;;;;;;;16.78;100.00;101474.84;5057232;28;20060;-66
2023/09/07 06:56:55;;;;;;;9.73;4.95;;;;;;;16.82;100.00;101479.91;5077348;28;20048;-67
2023/09/07 06:59:22;;;;;;;11.32;6.13;;;;;;;16.83;100.00;101481.63;5067170;28;20625;-66
2023/09/07 07:01:49;;;;;;;13.35;6.03;;;;;;;16.93;100.00;101489.94;5064695;28;20045;-67
2023/09/07 07:04:15;;;;;;;10.25;5.15;;;;;;;16.97;100.00;101482.69;5067668;28;20110;-68
2023/09/07 07:06:42;;;;;;;10.05;5.35;;;;;;;17.14;100.00;101480.03;5058428;28;20044;-68
2023/09/07 07:09:10;;;;;;;10.35;5.30;;;;;;;17.26;100.00;101481.13;5055305;28;20045;-68
2023/09/07 07:11:39;;;;;;;17.45;4.78;;;;;;;17.36;100.00;101470.91;5069026;28;20049;-68
2023/09/07 07:14:05;;;;;;;10.45;5.32;;;;;;;17.43;100.00;101478.44;5062354;28;20514;-68
2023/09/07 07:16:32;;;;;;;11.32;5.28;;;;;;;17.58;100.00;101486.47;5065633;28;20055;-68
2023/09/07 07:18:59;;;;;;;10.90;5.82;;;;;;;17.55;100.00;101492.81;5063224;28;20052;-68
2023/09/07 07:21:25;;;;;;;9.88;5.28;;;;;;;17.61;100.00;101495.09;5065093;28;20445;-68
2023/09/07 07:23:53;;;;;;;9.85;5.13;;;;;;;17.73;100.00;101482.97;5065236;28;20386;-68
2023/09/07 07:26:21;;;;;;;8.80;4.55;;;;;;;17.83;100.00;101478.88;5069206;28;20049;-68
2023/09/07 07:28:47;;;;;;;11.13;6.55;;;;;;;17.83;100.00;101485.97;5058527;28;20057;-68
2023/09/07 07:31:14;;;;;;;12.98;7.25;;;;;;;17.81;100.00;101487.84;5060933;28;20052;-68
2023/09/07 07:33:41;;;;;;;11.48;5.90;;;;;;;17.93;100.00;101483.69;5062073;28;20052;-68
2023/09/07 07:36:08;;;;;;;9.52;4.28;;;;;;;18.20;100.00;101491.84;5069565;28;20102;-68
2023/09/07 07:38:35;;;;;;;10.05;4.53;;;;;;;18.32;100.00;101488.47;5069032;28;21669;-68
2023/09/07 07:41:02;;;;;;;11.13;4.90;;;;;;;18.28;100.00;101468.41;5071022;28;20051;-68
2023/09/07 07:43:29;;;;;;;9.95;4.72;;;;;;;18.50;100.00;101480.41;5061323;28;20067;-68
2023/09/07 07:45:56;;;;;;;8.93;4.50;;;;;;;18.70;100.00;101469.47;5064711;28;20059;-68
2023/09/07 07:48:23;;;;;;;10.35;4.30;;;;;;;18.83;100.00;101453.69;5068935;28;20045;-69
2023/09/07 07:50:49;;;;;;;9.48;4.72;;;;;;;19.04;100.00;101455.97;5070823;28;20478;-68
2023/09/07 07:53:17;;;;;;;10.45;5.05;;;;;;;19.14;100.00;101460.59;5059675;28;20045;-68
2023/09/07 07:55:44;;;;;;;12.70;5.35;;;;;;;19.21;100.00;101458.44;5052805;28;20063;-69
2023/09/07 07:58:11;;;;;;;9.30;4.78;;;;;;;19.29;100.00;101466.75;5065923;28;20040;-68
2023/09/07 08:00:40;;;;;;;12.43;5.30;;;;;;;19.39;100.00;101466.16;5064333;28;20059;-69
2023/09/07 08:03:07;;;;;;;11.05;5.60;;;;;;;19.59;100.00;101468.41;5068791;28;20048;-68
2023/09/07 08:05:34;;;;;;;11.00;6.18;;;;;;;19.44;100.00;101472.91;5061629;28;20083;-68
2023/09/07 08:08:01;;;;;;;10.75;5.80;;;;;;;19.71;100.00;101466.78;5067342;28;20045;-69
2023/09/07 08:10:28;;;;;;;10.45;5.72;;;;;;;20.13;100.00;101477.38;5062685;28;20090;-68
2023/09/07 08:12:58;;;;;;;10.57;5.20;;;;;;;20.21;100.00;101472.41;5059771;28;20041;-68
2023/09/07 08:15:25;;;;;;;11.93;6.30;;;;;;;20.10;100.00;101475.78;5064451;28;20041;-69
2023/09/07 08:17:52;;;;;;;13.38;6.57;;;;;;;20.04;100.00;101462.88;5066394;28;20071;-69
2023/09/07 08:20:19;;;;;;;13.43;6.45;;;;;;;19.84;100.00;101472.19;5081520;28;20048;-69
2023/09/07 08:22:46;;;;;;;10.45;5.60;;;;;;;19.98;100.00;101479.25;5063780;28;20895;-69
2023/09/07 08:25:13;;;;;;;9.52;4.88;;;;;;;19.98;100.00;101495.22;5061414;28;20075;-69
2023/09/07 08:27:44;;;;;;;13.05;5.10;;;;;;;20.16;100.00;101486.00;5061766;28;20064;-69
2023/09/07 08:30:17;;;;;;;11.02;5.25;;;;;;;20.07;100.00;101473.34;5054115;28;20053;-68
2023/09/07 08:32:45;;;;;;;12.27;5.40;;;;;;;20.20;100.00;101491.97;5058042;28;20082;-68
2023/09/07 08:35:13;;;;;;;10.35;5.25;;;;;;;20.48;100.00;101477.69;5057186;28;20083;-68
2023/09/07 08:37:40;;;;;;;9.77;4.85;;;;;;;21.09;100.00;101493.94;5067475;28;20065;-68
2023/09/07 08:40:08;;;;;;;12.70;5.55;;;;;;;21.20;100.00;101498.50;5063824;28;20048;-68
2023/09/07 08:42:36;;;;;;;12.95;5.43;;;;;;;21.21;100.00;101486.88;5065061;28;20084;-68
2023/09/07 08:45:06;;;;;;;11.60;4.63;;;;;;;21.30;100.00;101491.59;5065273;28;20045;-68
2023/09/07 08:47:37;;;;;;;11.43;5.40;;;;;;;21.40;100.00;101484.59;5058884;28;20052;-68
2023/09/07 08:50:08;;;;;;;12.40;5.80;;;;;;;21.52;100.00;101488.25;5065043;28;20044;-68
2023/09/07 08:52:35;;;;;;;9.77;5.30;;;;;;;21.55;100.00;101481.88;5058741;28;20075;-68
2023/09/07 08:55:04;;;;;;;10.75;4.28;;;;;;;21.89;100.00;101479.41;5059200;28;20083;-68
2023/09/07 08:57:32;;;;;;;9.45;4.85;;;;;;;22.06;100.00;101483.47;5066868;28;20129;-68
2023/09/07 08:59:59;;;;;;;12.98;5.10;;;;;;;22.13;100.00;101480.25;5064772;28;20057;-68
2023/09/07 09:02:26;;;;;;;11.82;5.03;;;;;;;22.31;100.00;101475.38;5067867;28;20094;-69
2023/09/07 09:04:53;;;;;;;9.50;4.20;;;;;;;22.47;100.00;101477.72;5060556;28;20080;-68
2023/09/07 09:07:21;;;;;;;14.52;5.30;;;;;;;22.37;100.00;101490.06;5068838;28;20048;-68
2023/09/07 09:09:49;;;;;;;11.40;5.32;;;;;;;22.05;100.00;101485.28;5065916;28;20056;-68
2023/09/07 09:12:17;;;;;;;10.55;5.95;;;;;;;22.49;100.00;101482.94;5067181;28;20504;-68
2023/09/07 09:14:44;;;;;;;10.88;5.72;;;;;;;22.54;100.00;101478.06;5057064;28;20426;-68
2023/09/07 09:17:13;;;;;;;8.63;4.68;;;;;;;22.87;100.00;101477.28;5081583;28;20056;-68
2023/09/07 09:19:43;;;;;;;14.68;7.63;;;;;;;23.02;100.00;101472.59;5057853;28;20426;-68
2023/09/07 09:22:11;;;;;;;11.15;5.38;;;;;;;22.80;100.00;101472.56;5052307;28;20500;-68
2023/09/07 09:24:38;;;;;;;11.63;5.80;;;;;;;22.83;100.00;101470.50;5069930;28;20075;-68
2023/09/07 09:27:05;;;;;;;12.15;5.05;;;;;;;23.03;100.00;101476.94;5069117;28;20094;-68
2023/09/07 09:29:35;;;;;;;12.23;5.05;;;;;;;23.20;100.00;101462.31;5069176;28;20045;-68
2023/09/07 09:32:07;;;;;;;10.27;4.60;;;;;;;23.63;100.00;101469.50;5068988;28;20482;-68
2023/09/07 09:34:35;;;;;;;10.23;5.35;;;;;;;23.91;100.00;101466.44;5069305;28;20074;-68
2023/09/07 09:37:06;;;;;;;11.77;4.80;;;;;;;24.10;100.00;101465.75;5066935;28;20135;-68
2023/09/07 09:39:34;;;;;;;10.55;5.07;;;;;;;24.17;100.00;101454.44;5065207;28;20051;-69
2023/09/07 09:42:02;;;;;;;9.38;5.03;;;;;;;24.04;100.00;101443.88;5068081;28;20045;-69
2023/09/07 09:44:30;;;;;;;10.70;5.00;;;;;;;24.35;100.00;101452.03;5067433;28;20366;-69
2023/09/07 09:46:57;;;;;;;15.77;7.35;;;;;;;24.36;100.00;101456.38;5069562;28;20362;-69
2023/09/07 09:49:26;;;;;;;12.45;5.68;;;;;;;24.36;100.00;101455.53;5069708;28;20048;-69
2023/09/07 09:51:53;;;;;;;10.20;4.78;;;;;;;24.29;100.00;101460.56;5060693;28;20431;-69
2023/09/07 09:54:22;;;;;;;13.20;6.32;;;;;;;24.43;100.00;101456.72;5061939;28;20574;-69
2023/09/07 09:56:49;;;;;;;10.70;5.20;;;;;;;24.44;100.00;101439.69;5058204;28;20538;-69
2023/09/07 09:59:15;;;;;;;9.75;5.30;;;;;;;24.54;100.00;101451.34;5056784;28;20037;-69
2023/09/07 10:01:48;;;;;;;10.05;5.25;;;;;;;24.61;100.00;101451.63;5061937;28;20045;-69
2023/09/07 10:04:17;;;;;;;10.43;4.97;;;;;;;24.93;100.00;101445.31;5069445;28;20524;-69
2023/09/07 10:06:54;;;;;;;13.45;4.28;;;;;;;25.13;100.00;101433.72;5062679;28;20521;-69
2023/09/07 10:09:22;;;;;;;9.63;4.13;;;;;;;25.43;100.00;101442.72;5071403;28;20424;-69
2023/09/07 10:11:54;;;;;;;16.35;5.47;;;;;;;25.20;100.00;101452.78;5070149;28;20508;-68
2023/09/07 10:14:21;;;;;;;10.88;5.00;;;;;;;25.32;100.00;101450.84;5056960;28;20047;-68
2023/09/07 10:16:53;;;;;;;11.00;4.82;;;;;;;25.54;100.00;101444.44;5063716;28;20102;-69
2023/09/07 10:19:21;;;;;;;10.95;5.00;;;;;;;25.49;100.00;101438.63;5054590;28;20120;-69
2023/09/07 10:21:50;;;;;;;10.82;4.25;;;;;;;25.76;100.00;101435.28;5064777;28;20383;-68
2023/09/07 10:24:30;;;;;;;7.97;3.58;;;;;;;26.18;100.00;101428.81;5071322;28;20075;-69
2023/09/07 10:27:02;;;;;;;10.05;4.30;;;;;;;25.97;100.00;101426.28;5064911;28;20291;-68
2023/09/07 10:29:29;;;;;;;10.30;4.78;;;;;;;25.77;100.00;101418.19;5059101;28;20053;-68
2023/09/07 10:31:56;;;;;;;13.60;4.63;;;;;;;26.07;100.00;101405.66;5055906;28;20053;-68
2023/09/07 10:34:35;;;;;;;10.45;3.95;;;;;;;26.28;100.00;101411.69;5066874;28;20053;-69
2023/09/07 10:37:03;;;;;;;9.98;4.05;;;;;;;26.52;100.00;101405.00;5066766;28;20052;-69
2023/09/07 10:39:32;;;;;;;12.15;4.55;;;;;;;26.05;100.00;101405.81;5062916;28;20518;-69
2023/09/07 10:41:59;;;;;;;10.55;4.05;;;;;;;26.63;100.00;101399.50;5067746;28;20052;-69
2023/09/07 10:44:26;;;;;;;10.27;3.65;;;;;;;26.68;100.00;101407.09;5066057;28;20178;-69
2023/09/07 10:46:54;;;;;;;9.25;3.42;;;;;;;26.70;100.00;101405.97;5059751;28;20410;-69
2023/09/07 10:49:21;;;;;;;12.90;3.40;;;;;;;27.12;100.00;101401.94;5068658;28;20048;-68
2023/09/07 10:51:48;;;;;;;11.02;3.70;;;;;;;26.83;100.00;101402.09;5058385;28;20483;-68
2023/09/07 10:54:22;;;;;;;11.73;4.70;;;;;;;26.64;100.00;101403.84;5065912;28;20051;-68
2023/09/07 10:56:50;;;;;;;13.40;4.15;;;;;;;26.71;100.00;101410.34;5053396;28;20052;-68
2023/09/07 10:59:17;;;;;;;10.45;4.30;;;;;;;26.38;100.00;101387.50;5062810;28;20195;-68
2023/09/07 11:01:45;;;;;;;11.48;4.45;;;;;;;26.25;100.00;101390.50;5061109;28;20063;-68
2023/09/07 11:04:12;;;;;;;11.35;4.30;;;;;;;26.45;100.00;101393.97;5060244;28;20040;-68
2023/09/07 11:06:41;;;;;;;9.68;4.15;;;;;;;26.11;100.00;101410.59;5058235;28;20096;-68
2023/09/07 11:09:10;;;;;;;11.55;5.25;;;;;;;25.73;100.00;101411.44;5060569;28;20041;-68
2023/09/07 11:11:38;;;;;;;10.68;4.65;;;;;;;25.58;100.00;101410.97;5057750;28;20068;-68
2023/09/07 11:14:06;;;;;;;12.32;4.38;;;;;;;25.87;100.00;101404.78;5058639;28;20052;-68